Terminal Aerodrome Forecast
Issued by NWS

Home | Current Version | Previous Version | Text Only | Print | Product List | Glossary Off
Versions: 1 2 3 4 5 6 7 8 9 10 11 12 13

395
FTUS43 KIWX 292130 AAA
TAFSBN
TAF AMD
KSBN 292130Z 2922/3018 29013KT P6SM SKC
     FM300000 29005KT P6SM SKC
     FM301500 29007KT P6SM SCT050=

USA.gov is the U.S. government's official web portal to all federal, state and local government web resources and services.